createdAt,value
2023-06-24T00:07:50.530Z,1016.50
2023-06-24T00:17:51.040Z,1016.66
2023-06-24T00:27:51.597Z,1016.66
2023-06-24T00:37:52.280Z,1016.73
2023-06-24T00:47:52.885Z,1016.74
2023-06-24T00:57:53.409Z,1016.76
2023-06-24T01:07:53.983Z,1016.77
2023-06-24T01:17:54.582Z,1016.72
2023-06-24T01:27:55.329Z,1016.63
2023-06-24T01:37:55.852Z,1016.59
2023-06-24T01:47:56.444Z,1016.58
2023-06-24T01:57:56.996Z,1016.61
2023-06-24T02:07:57.568Z,1016.56
2023-06-24T02:17:58.372Z,1016.58
2023-06-24T02:27:58.958Z,1016.52
2023-06-24T02:37:59.438Z,1016.50
2023-06-24T02:47:59.950Z,1016.64
2023-06-24T02:58:00.443Z,1016.74
2023-06-24T03:08:00.949Z,1016.87
2023-06-24T03:18:01.503Z,1016.97
2023-06-24T03:28:02.034Z,1017.02
2023-06-24T03:38:02.497Z,1017.10
2023-06-24T03:48:03.064Z,1017.19
2023-06-24T03:58:03.588Z,1017.19
2023-06-24T04:08:04.113Z,1017.26
2023-06-24T04:18:04.600Z,1017.23
2023-06-24T04:28:05.113Z,1017.31
2023-06-24T04:38:05.627Z,1017.46
2023-06-24T04:48:06.136Z,1017.43
2023-06-24T04:58:06.616Z,1017.52
2023-06-24T05:08:07.131Z,1017.63
2023-06-24T05:18:14.613Z,1017.58
2023-06-24T05:28:08.099Z,1017.64
2023-06-24T05:38:08.569Z,1017.73
2023-06-24T05:48:09.088Z,1017.81
2023-06-24T05:58:09.567Z,1017.87
2023-06-24T06:08:10.121Z,1017.90
2023-06-24T06:18:10.621Z,1017.77
2023-06-24T06:28:11.132Z,1017.82
2023-06-24T06:38:11.583Z,1017.85
2023-06-24T06:48:12.096Z,1017.82
2023-06-24T06:58:12.571Z,1017.77
2023-06-24T07:08:13.086Z,1017.76
2023-06-24T07:18:13.571Z,1017.82
2023-06-24T07:28:14.067Z,1017.94
2023-06-24T07:38:14.700Z,1018.06
2023-06-24T07:48:15.217Z,1018.03
2023-06-24T07:58:15.680Z,1018.15
2023-06-24T08:08:16.211Z,1018.10
2023-06-24T08:18:16.690Z,1018.17
2023-06-24T08:28:17.205Z,1018.23
2023-06-24T08:38:17.693Z,1018.28
2023-06-24T08:48:18.375Z,1018.29
2023-06-24T08:58:18.895Z,1018.25
2023-06-24T09:08:19.407Z,1018.33
2023-06-24T09:18:19.880Z,1018.34
2023-06-24T09:28:20.388Z,1018.33
2023-06-24T09:38:20.874Z,1018.26
2023-06-24T09:48:21.404Z,1018.24
2023-06-24T09:58:21.881Z,1018.21
2023-06-24T10:08:22.400Z,1018.09
2023-06-24T10:18:22.914Z,1018.02
2023-06-24T10:28:23.434Z,1018.02
2023-06-24T10:38:23.917Z,1017.94
2023-06-24T10:48:24.456Z,1017.85
2023-06-24T10:58:24.921Z,1017.81
2023-06-24T11:08:25.503Z,1017.78
2023-06-24T11:18:32.973Z,1017.78
2023-06-24T11:28:26.501Z,1017.82
2023-06-24T11:38:26.985Z,1017.69
2023-06-24T11:48:27.514Z,1017.59
2023-06-24T11:58:28.021Z,1017.64
2023-06-24T12:08:33.482Z,1017.61
2023-06-24T12:18:30.392Z,1017.53
2023-06-24T12:28:29.908Z,1017.54
2023-06-24T12:38:30.413Z,1017.45
2023-06-24T12:48:30.932Z,1017.45
2023-06-24T12:58:31.434Z,1017.44
2023-06-24T13:08:31.940Z,1017.41
2023-06-24T13:18:32.450Z,1017.49
2023-06-24T13:28:33.018Z,1017.49
2023-06-24T13:38:33.490Z,1017.40
2023-06-24T13:48:33.995Z,1017.31
2023-06-24T13:58:34.482Z,1017.31
2023-06-24T14:08:35.080Z,1017.17
2023-06-24T14:18:35.608Z,1017.14
2023-06-24T14:28:36.169Z,1017.15
2023-06-24T14:38:36.648Z,1017.05
2023-06-24T14:48:37.251Z,1016.96
2023-06-24T14:58:37.829Z,1016.93
2023-06-24T15:08:38.374Z,1016.86
2023-06-24T15:18:38.887Z,1016.80
2023-06-24T15:28:39.377Z,1016.72
2023-06-24T15:38:39.868Z,1016.64
2023-06-24T15:48:40.403Z,1016.69
2023-06-24T15:58:40.886Z,1016.69
2023-06-24T16:08:41.419Z,1016.61
2023-06-24T16:18:41.925Z,1016.57
2023-06-24T16:28:42.437Z,1016.59
2023-06-24T16:38:42.940Z,1016.57
2023-06-24T16:48:43.501Z,1016.50
2023-06-24T16:58:44.022Z,1016.58
2023-06-24T17:08:44.651Z,1016.56
2023-06-24T17:18:52.148Z,1016.55
2023-06-24T17:28:45.673Z,1016.53
2023-06-24T17:38:46.126Z,1016.52
2023-06-24T17:48:46.655Z,1016.45
2023-06-24T17:58:47.131Z,1016.46
2023-06-24T18:08:47.659Z,1016.52
2023-06-24T18:18:48.123Z,1016.50
2023-06-24T18:28:48.658Z,1016.47
2023-06-24T18:38:49.126Z,1016.50
2023-06-24T18:48:49.652Z,1016.46
2023-06-24T18:58:50.107Z,1016.42
2023-06-24T19:08:50.621Z,1016.43
2023-06-24T19:18:51.082Z,1016.42
2023-06-24T19:28:51.623Z,1016.45
2023-06-24T19:38:52.088Z,1016.49
2023-06-24T19:48:52.615Z,1016.52
2023-06-24T19:58:53.078Z,1016.49
2023-06-24T20:08:53.612Z,1016.54
2023-06-24T20:18:54.161Z,1016.52
2023-06-24T20:28:54.739Z,1016.45
2023-06-24T20:38:55.286Z,1016.35
2023-06-24T20:48:55.872Z,1016.31
2023-06-24T20:58:56.374Z,1016.26
2023-06-24T21:08:56.962Z,1016.25
2023-06-24T21:18:57.503Z,1016.26
2023-06-24T21:28:58.088Z,1016.24
2023-06-24T21:38:58.613Z,1016.19
2023-06-24T21:48:59.200Z,1016.21
2023-06-24T21:58:59.730Z,1016.21
2023-06-24T22:09:00.301Z,1016.18
2023-06-24T22:19:00.840Z,1016.16
2023-06-24T22:29:01.393Z,1016.23
2023-06-24T22:39:01.920Z,1016.24
2023-06-24T22:49:02.494Z,1016.16
2023-06-24T22:59:03.017Z,1016.16
2023-06-24T23:09:03.591Z,1016.15
2023-06-24T23:19:11.126Z,1016.13
2023-06-24T23:29:04.699Z,1016.16
2023-06-24T23:39:05.252Z,1016.10
2023-06-24T23:49:05.670Z,1016.10
2023-06-24T23:59:06.207Z,1016.09
